BCS9237 LWSK-EDDP
Flight info
| Callsign | BCS9237 |
|---|---|
| Flight time | 1h 55m |
| Altitude | 40000 |
| Route | SIN2D/34 SIN DCT RAXAD DCT GAZON DCT KOTUS DCT TONDO DCT BEGLA DCT LOKVU DCT ODLIV DCT BEFRE DCT IVQOQ T951 YAWOY YAWOY1R |
| Aircraft | A333/H-SDE3GHIJ2J3J5M1RVWXY/LB2D1 |
Departure
| Time | 2026-05-08 14:20 |
|---|---|
| Airport | Skopje International Airport (LWSK) |
Arrival
| Time | 2026-05-08 16:15 |
|---|---|
| Airport | Leipzig/Halle Airport (EDDP) |
| Time | Latitude | Longitude | Altitude | Speed | Heading |
|---|---|---|---|---|---|
| 2026-05-08 14:03 | 41.95791 | 21.62661 | 791 ft | 0 kts | 75° |
| 2026-05-08 14:13 | 41.95790 | 21.62657 | 791 ft | 3 kts | 75° |
| 2026-05-08 14:13 | 41.95785 | 21.62622 | 791 ft | 4 kts | 83° |
| 2026-05-08 14:13 | 41.95784 | 21.62588 | 792 ft | 4 kts | 96° |
| 2026-05-08 14:13 | 41.95790 | 21.62554 | 792 ft | 5 kts | 125° |
| 2026-05-08 14:14 | 41.95802 | 21.62540 | 793 ft | 1 kts | 166° |
| 2026-05-08 14:16 | 41.95750 | 21.62557 | 791 ft | 14 kts | 166° |
| 2026-05-08 14:16 | 41.95650 | 21.62592 | 789 ft | 15 kts | 165° |
| 2026-05-08 14:17 | 41.95546 | 21.62628 | 789 ft | 16 kts | 165° |
| 2026-05-08 14:17 | 41.95441 | 21.62668 | 787 ft | 16 kts | 165° |
| 2026-05-08 14:17 | 41.95333 | 21.62707 | 785 ft | 17 kts | 165° |
| 2026-05-08 14:17 | 41.95214 | 21.62749 | 783 ft | 18 kts | 170° |
| 2026-05-08 14:18 | 41.95147 | 21.62706 | 782 ft | 0 kts | 246° |
| 2026-05-08 14:18 | 41.95147 | 21.62705 | 782 ft | 0 kts | 246° |
| 2026-05-08 14:18 | 41.95146 | 21.62702 | 782 ft | 3 kts | 246° |
| 2026-05-08 14:19 | 41.95125 | 21.62626 | 782 ft | 13 kts | 252° |
| 2026-05-08 14:19 | 41.95120 | 21.62523 | 785 ft | 8 kts | 304° |
| 2026-05-08 14:19 | 41.95212 | 21.62473 | 785 ft | 32 kts | 343° |
| 2026-05-08 14:19 | 41.95632 | 21.62329 | 788 ft | 91 kts | 346° |
| 2026-05-08 14:20 | 41.96417 | 21.62054 | 794 ft | 141 kts | 345° |
| 2026-05-08 14:20 | 41.97481 | 21.61677 | 1004 ft | 165 kts | 347° |
| 2026-05-08 14:20 | 41.98579 | 21.61292 | 1524 ft | 167 kts | 348° |
| 2026-05-08 14:20 | 41.99733 | 21.60913 | 2072 ft | 173 kts | 350° |
| 2026-05-08 14:21 | 42.00983 | 21.60980 | 2320 ft | 191 kts | 25° |
| 2026-05-08 14:21 | 42.01934 | 21.62253 | 2519 ft | 206 kts | 71° |
| 2026-05-08 14:21 | 42.01936 | 21.64224 | 2748 ft | 227 kts | 111° |
| 2026-05-08 14:21 | 42.00883 | 21.65895 | 2994 ft | 249 kts | 150° |
| 2026-05-08 14:22 | 41.99177 | 21.66369 | 3583 ft | 258 kts | 186° |
| 2026-05-08 14:22 | 41.97433 | 21.65781 | 4416 ft | 258 kts | 195° |
| 2026-05-08 14:22 | 41.95708 | 21.65148 | 5289 ft | 257 kts | 192° |
| 2026-05-08 14:22 | 41.93941 | 21.64674 | 6039 ft | 261 kts | 185° |
| 2026-05-08 14:23 | 41.92127 | 21.64840 | 6738 ft | 266 kts | 162° |
| 2026-05-08 14:23 | 41.90577 | 21.66139 | 7474 ft | 272 kts | 134° |
| 2026-05-08 14:23 | 41.89642 | 21.68387 | 8292 ft | 279 kts | 105° |
| 2026-05-08 14:23 | 41.89619 | 21.70964 | 9069 ft | 286 kts | 77° |
| 2026-05-08 14:24 | 41.90458 | 21.73400 | 9688 ft | 291 kts | 58° |
| 2026-05-08 14:24 | 41.91613 | 21.75674 | 9960 ft | 297 kts | 55° |
| 2026-05-08 14:24 | 41.92820 | 21.77925 | 9992 ft | 296 kts | 56° |
| 2026-05-08 14:24 | 41.94010 | 21.80174 | 9991 ft | 295 kts | 58° |
| 2026-05-08 14:25 | 41.94876 | 21.82634 | 9997 ft | 290 kts | 79° |
| 2026-05-08 14:25 | 41.95190 | 21.85408 | 9991 ft | 316 kts | 87° |
| 2026-05-08 14:25 | 41.95369 | 21.88340 | 9989 ft | 308 kts | 88° |
| 2026-05-08 14:25 | 41.95719 | 21.91101 | 10200 ft | 290 kts | 75° |
| 2026-05-08 14:26 | 41.96515 | 21.93515 | 10722 ft | 284 kts | 59° |
| 2026-05-08 14:26 | 41.97827 | 21.95613 | 10987 ft | 305 kts | 44° |
| 2026-05-08 14:26 | 41.99516 | 21.97503 | 11235 ft | 327 kts | 37° |
| 2026-05-08 14:26 | 42.01453 | 21.99282 | 11499 ft | 347 kts | 32° |
| 2026-05-08 14:27 | 42.03545 | 22.01022 | 11925 ft | 358 kts | 31° |
| 2026-05-08 14:27 | 42.05704 | 22.02765 | 12506 ft | 365 kts | 30° |
| 2026-05-08 14:27 | 42.07891 | 22.04541 | 13179 ft | 368 kts | 31° |
| 2026-05-08 14:27 | 42.10085 | 22.06357 | 13861 ft | 372 kts | 31° |
| 2026-05-08 14:28 | 42.12296 | 22.08222 | 14430 ft | 377 kts | 31° |
| 2026-05-08 14:28 | 42.14519 | 22.10123 | 15034 ft | 380 kts | 31° |
| 2026-05-08 14:28 | 42.16757 | 22.12053 | 15600 ft | 384 kts | 32° |
| 2026-05-08 14:28 | 42.19014 | 22.14008 | 16134 ft | 388 kts | 31° |
| 2026-05-08 14:29 | 42.21297 | 22.15990 | 16673 ft | 392 kts | 31° |
| 2026-05-08 14:29 | 42.23598 | 22.17987 | 17265 ft | 394 kts | 32° |
| 2026-05-08 14:29 | 42.25977 | 22.19827 | 17926 ft | 394 kts | 24° |
| 2026-05-08 14:29 | 42.28555 | 22.21094 | 18446 ft | 396 kts | 12° |
| 2026-05-08 14:30 | 42.31279 | 22.21620 | 18875 ft | 396 kts | 359° |
| 2026-05-08 14:30 | 42.34019 | 22.21307 | 19359 ft | 395 kts | 346° |
| 2026-05-08 14:30 | 42.36632 | 22.20204 | 19847 ft | 394 kts | 335° |
| 2026-05-08 14:30 | 42.39132 | 22.18670 | 20289 ft | 396 kts | 331° |
| 2026-05-08 14:31 | 42.41590 | 22.16958 | 20714 ft | 398 kts | 329° |
| 2026-05-08 14:31 | 42.44027 | 22.15167 | 21199 ft | 400 kts | 329° |
| 2026-05-08 14:31 | 42.46473 | 22.13349 | 21667 ft | 402 kts | 329° |
| 2026-05-08 14:32 | 42.51408 | 22.09726 | 22477 ft | 410 kts | 330° |
| 2026-05-08 14:32 | 42.53933 | 22.07904 | 22937 ft | 412 kts | 330° |
| 2026-05-08 14:32 | 42.56477 | 22.06081 | 23381 ft | 415 kts | 330° |
| 2026-05-08 14:32 | 42.59036 | 22.04255 | 23781 ft | 417 kts | 330° |
| 2026-05-08 14:33 | 42.61615 | 22.02418 | 24118 ft | 420 kts | 330° |
| 2026-05-08 14:33 | 42.64212 | 22.00567 | 24465 ft | 423 kts | 330° |
| 2026-05-08 14:33 | 42.66817 | 21.98706 | 24800 ft | 425 kts | 330° |
| 2026-05-08 14:33 | 42.69441 | 21.96830 | 25127 ft | 427 kts | 330° |
| 2026-05-08 14:34 | 42.72077 | 21.94941 | 25470 ft | 429 kts | 330° |
| 2026-05-08 14:34 | 42.74725 | 21.93042 | 25811 ft | 432 kts | 330° |
| 2026-05-08 14:34 | 42.77389 | 21.91129 | 26125 ft | 434 kts | 330° |
| 2026-05-08 14:34 | 42.80068 | 21.89204 | 26436 ft | 437 kts | 330° |
| 2026-05-08 14:35 | 42.82757 | 21.87271 | 26766 ft | 438 kts | 330° |
| 2026-05-08 14:35 | 42.85461 | 21.85325 | 27089 ft | 440 kts | 330° |
| 2026-05-08 14:35 | 42.88175 | 21.83368 | 27387 ft | 443 kts | 330° |
| 2026-05-08 14:35 | 42.90908 | 21.81396 | 27681 ft | 445 kts | 330° |
| 2026-05-08 14:36 | 42.93652 | 21.79414 | 27991 ft | 447 kts | 330° |
| 2026-05-08 14:36 | 42.96408 | 21.77421 | 28304 ft | 449 kts | 330° |
| 2026-05-08 14:36 | 42.99172 | 21.75420 | 28608 ft | 451 kts | 330° |
| 2026-05-08 14:36 | 43.01952 | 21.73406 | 28914 ft | 453 kts | 330° |
| 2026-05-08 14:37 | 43.04741 | 21.71383 | 29218 ft | 455 kts | 330° |
| 2026-05-08 14:37 | 43.07541 | 21.69351 | 29518 ft | 457 kts | 330° |
| 2026-05-08 14:37 | 43.10349 | 21.67311 | 29807 ft | 459 kts | 330° |
| 2026-05-08 14:37 | 43.13175 | 21.65254 | 30071 ft | 461 kts | 330° |
| 2026-05-08 14:38 | 43.16009 | 21.63190 | 30308 ft | 463 kts | 330° |
| 2026-05-08 14:38 | 43.18860 | 21.61112 | 30552 ft | 464 kts | 330° |
| 2026-05-08 14:38 | 43.21677 | 21.59056 | 30805 ft | 466 kts | 330° |
| 2026-05-08 14:38 | 43.24543 | 21.56962 | 31045 ft | 467 kts | 330° |
| 2026-05-08 14:39 | 43.27452 | 21.54835 | 31308 ft | 469 kts | 330° |
| 2026-05-08 14:39 | 43.30294 | 21.52753 | 31557 ft | 470 kts | 330° |
| 2026-05-08 14:39 | 43.33183 | 21.50636 | 31792 ft | 471 kts | 330° |
| 2026-05-08 14:39 | 43.36110 | 21.48488 | 32033 ft | 472 kts | 330° |
| 2026-05-08 14:40 | 43.38973 | 21.46386 | 32366 ft | 471 kts | 330° |
| 2026-05-08 14:40 | 43.41859 | 21.44264 | 32728 ft | 469 kts | 330° |
| 2026-05-08 14:40 | 43.44733 | 21.42148 | 33087 ft | 468 kts | 330° |
| 2026-05-08 14:40 | 43.47596 | 21.40038 | 33409 ft | 466 kts | 330° |
| 2026-05-08 14:41 | 43.50456 | 21.37928 | 33723 ft | 466 kts | 330° |
| 2026-05-08 14:41 | 43.53312 | 21.35819 | 34066 ft | 465 kts | 330° |
| 2026-05-08 14:41 | 43.56157 | 21.33715 | 34362 ft | 464 kts | 330° |
| 2026-05-08 14:41 | 43.59002 | 21.31608 | 34557 ft | 464 kts | 329° |
| 2026-05-08 14:42 | 43.61845 | 21.29501 | 34824 ft | 463 kts | 329° |
| 2026-05-08 14:42 | 43.64684 | 21.27395 | 35118 ft | 463 kts | 329° |
| 2026-05-08 14:42 | 43.67515 | 21.25293 | 35394 ft | 462 kts | 329° |
| 2026-05-08 14:42 | 43.70337 | 21.23196 | 35612 ft | 461 kts | 329° |
| 2026-05-08 14:43 | 43.73158 | 21.21097 | 35863 ft | 460 kts | 329° |
| 2026-05-08 14:43 | 43.75968 | 21.19004 | 36093 ft | 459 kts | 329° |
| 2026-05-08 14:43 | 43.78780 | 21.16906 | 36294 ft | 459 kts | 328° |
| 2026-05-08 14:43 | 43.81593 | 21.14806 | 36472 ft | 459 kts | 328° |
| 2026-05-08 14:44 | 43.84402 | 21.12707 | 36666 ft | 459 kts | 328° |
| 2026-05-08 14:44 | 43.87209 | 21.10607 | 36888 ft | 458 kts | 328° |
| 2026-05-08 14:44 | 43.90004 | 21.08515 | 37112 ft | 457 kts | 328° |
| 2026-05-08 14:44 | 43.92796 | 21.06422 | 37342 ft | 456 kts | 328° |
| 2026-05-08 14:45 | 43.95583 | 21.04331 | 37556 ft | 455 kts | 328° |
| 2026-05-08 14:45 | 43.98365 | 21.02241 | 37761 ft | 454 kts | 328° |
| 2026-05-08 14:45 | 44.01140 | 21.00153 | 37966 ft | 453 kts | 328° |
| 2026-05-08 14:45 | 44.03913 | 20.98065 | 38140 ft | 453 kts | 328° |
| 2026-05-08 14:46 | 44.06685 | 20.95976 | 38328 ft | 453 kts | 327° |
| 2026-05-08 14:46 | 44.09451 | 20.93889 | 38506 ft | 452 kts | 327° |
| 2026-05-08 14:46 | 44.12209 | 20.91806 | 38681 ft | 451 kts | 327° |
| 2026-05-08 14:46 | 44.14969 | 20.89719 | 38811 ft | 451 kts | 327° |
| 2026-05-08 14:47 | 44.17717 | 20.87605 | 38926 ft | 451 kts | 327° |
| 2026-05-08 14:47 | 44.20440 | 20.85446 | 39083 ft | 450 kts | 326° |
| 2026-05-08 14:47 | 44.23149 | 20.83263 | 39207 ft | 449 kts | 326° |
| 2026-05-08 14:47 | 44.25811 | 20.81103 | 39312 ft | 449 kts | 326° |
| 2026-05-08 14:48 | 44.28514 | 20.78907 | 39420 ft | 449 kts | 326° |
| 2026-05-08 14:48 | 44.31217 | 20.76712 | 39509 ft | 450 kts | 326° |
| 2026-05-08 14:48 | 44.36628 | 20.72325 | 39724 ft | 450 kts | 326° |
| 2026-05-08 14:49 | 44.42044 | 20.67937 | 39907 ft | 450 kts | 326° |
| 2026-05-08 14:49 | 44.47469 | 20.63533 | 40007 ft | 453 kts | 326° |
| 2026-05-08 14:50 | 44.52054 | 20.59801 | 40001 ft | 456 kts | 326° |
| 2026-05-08 14:50 | 44.57545 | 20.55326 | 40002 ft | 456 kts | 326° |
| 2026-05-08 14:51 | 44.63027 | 20.50848 | 39997 ft | 456 kts | 326° |
| 2026-05-08 14:51 | 44.68465 | 20.46395 | 39996 ft | 456 kts | 326° |
| 2026-05-08 14:52 | 44.76684 | 20.39645 | 39994 ft | 456 kts | 325° |
| 2026-05-08 14:53 | 44.82165 | 20.35132 | 39993 ft | 456 kts | 325° |
| 2026-05-08 14:53 | 44.87637 | 20.30615 | 39993 ft | 456 kts | 325° |
| 2026-05-08 14:54 | 44.93098 | 20.26098 | 39993 ft | 456 kts | 325° |
| 2026-05-08 14:54 | 44.98568 | 20.21563 | 39994 ft | 456 kts | 325° |
| 2026-05-08 14:55 | 45.04037 | 20.17019 | 40007 ft | 456 kts | 325° |
| 2026-05-08 14:55 | 45.09510 | 20.12461 | 40009 ft | 456 kts | 325° |
| 2026-05-08 14:56 | 45.14974 | 20.07900 | 40009 ft | 456 kts | 325° |
| 2026-05-08 14:56 | 45.20442 | 20.03326 | 40011 ft | 456 kts | 325° |
| 2026-05-08 14:57 | 45.25903 | 19.98748 | 40022 ft | 456 kts | 325° |
| 2026-05-08 14:57 | 45.31369 | 19.94158 | 40024 ft | 457 kts | 325° |
| 2026-05-08 14:58 | 45.36902 | 19.89705 | 40006 ft | 457 kts | 327° |
| 2026-05-08 14:58 | 45.42478 | 19.85341 | 40015 ft | 458 kts | 327° |
| 2026-05-08 14:59 | 45.48056 | 19.80966 | 40018 ft | 457 kts | 327° |
| 2026-05-08 14:59 | 45.56400 | 19.74365 | 40014 ft | 457 kts | 326° |
| 2026-05-08 15:00 | 45.61913 | 19.69982 | 40015 ft | 457 kts | 326° |
| 2026-05-08 15:00 | 45.67459 | 19.65562 | 40024 ft | 457 kts | 326° |
| 2026-05-08 15:01 | 45.73004 | 19.61134 | 40014 ft | 456 kts | 326° |
| 2026-05-08 15:01 | 45.78545 | 19.56699 | 40015 ft | 456 kts | 326° |
| 2026-05-08 15:02 | 45.84079 | 19.52260 | 40015 ft | 456 kts | 326° |
| 2026-05-08 15:02 | 45.89611 | 19.47811 | 40013 ft | 456 kts | 326° |
| 2026-05-08 15:03 | 45.95144 | 19.43353 | 40016 ft | 456 kts | 326° |
| 2026-05-08 15:03 | 46.00667 | 19.38893 | 40017 ft | 455 kts | 326° |
| 2026-05-08 15:04 | 46.05958 | 19.33980 | 40022 ft | 450 kts | 318° |
| 2026-05-08 15:04 | 46.10830 | 19.28335 | 40017 ft | 450 kts | 316° |
| 2026-05-08 15:05 | 46.15626 | 19.22544 | 40017 ft | 450 kts | 315° |
| 2026-05-08 15:05 | 46.20406 | 19.16725 | 40018 ft | 449 kts | 316° |
| 2026-05-08 15:06 | 46.25180 | 19.10923 | 40018 ft | 449 kts | 316° |
| 2026-05-08 15:06 | 46.29957 | 19.05118 | 40018 ft | 449 kts | 316° |
| 2026-05-08 15:07 | 46.34735 | 18.99303 | 40017 ft | 449 kts | 316° |
| 2026-05-08 15:07 | 46.39511 | 18.93477 | 40023 ft | 449 kts | 316° |
| 2026-05-08 15:08 | 46.43474 | 18.88631 | 40032 ft | 449 kts | 316° |
| 2026-05-08 15:08 | 46.49014 | 18.81841 | 40030 ft | 448 kts | 316° |
| 2026-05-08 15:09 | 46.53767 | 18.76000 | 40026 ft | 448 kts | 316° |
| 2026-05-08 15:09 | 46.58517 | 18.70148 | 40026 ft | 448 kts | 315° |
| 2026-05-08 15:10 | 46.63267 | 18.64282 | 40029 ft | 448 kts | 315° |
| 2026-05-08 15:10 | 46.68015 | 18.58404 | 40029 ft | 448 kts | 315° |
| 2026-05-08 15:11 | 46.72754 | 18.52525 | 40030 ft | 448 kts | 315° |
| 2026-05-08 15:11 | 46.77487 | 18.46638 | 40031 ft | 447 kts | 315° |
| 2026-05-08 15:12 | 46.82215 | 18.40742 | 40029 ft | 447 kts | 315° |
| 2026-05-08 15:12 | 46.86939 | 18.34838 | 40031 ft | 447 kts | 315° |
| 2026-05-08 15:13 | 46.91659 | 18.28925 | 40029 ft | 447 kts | 315° |
| 2026-05-08 15:13 | 46.96379 | 18.22997 | 40037 ft | 447 kts | 315° |
| 2026-05-08 15:14 | 47.01090 | 18.17067 | 40037 ft | 446 kts | 315° |
| 2026-05-08 15:14 | 47.05788 | 18.11139 | 40040 ft | 446 kts | 315° |
| 2026-05-08 15:15 | 47.10485 | 18.05197 | 40043 ft | 446 kts | 315° |
| 2026-05-08 15:15 | 47.15175 | 17.99250 | 40044 ft | 446 kts | 315° |
| 2026-05-08 15:16 | 47.19864 | 17.93290 | 40049 ft | 446 kts | 315° |
| 2026-05-08 15:16 | 47.24553 | 17.87318 | 40043 ft | 446 kts | 315° |
| 2026-05-08 15:17 | 47.29237 | 17.81333 | 40062 ft | 446 kts | 315° |
| 2026-05-08 15:17 | 47.33922 | 17.75333 | 40058 ft | 446 kts | 315° |
| 2026-05-08 15:18 | 47.38601 | 17.69327 | 40051 ft | 446 kts | 315° |
| 2026-05-08 15:18 | 47.43255 | 17.63338 | 40048 ft | 447 kts | 315° |
| 2026-05-08 15:19 | 47.47945 | 17.57287 | 40047 ft | 448 kts | 315° |
| 2026-05-08 15:19 | 47.52633 | 17.51225 | 40047 ft | 448 kts | 315° |
| 2026-05-08 15:20 | 47.57319 | 17.45150 | 40048 ft | 448 kts | 315° |
| 2026-05-08 15:20 | 47.61997 | 17.39071 | 40048 ft | 448 kts | 315° |
| 2026-05-08 15:21 | 47.66688 | 17.32958 | 40047 ft | 449 kts | 315° |
| 2026-05-08 15:21 | 47.71381 | 17.26829 | 40047 ft | 449 kts | 315° |
| 2026-05-08 15:22 | 47.76069 | 17.20693 | 40053 ft | 449 kts | 315° |
| 2026-05-08 15:22 | 47.80755 | 17.14544 | 40055 ft | 449 kts | 315° |
| 2026-05-08 15:23 | 47.85502 | 17.08479 | 40057 ft | 451 kts | 317° |
| 2026-05-08 15:23 | 47.90401 | 17.02623 | 40051 ft | 452 kts | 317° |
| 2026-05-08 15:24 | 47.95306 | 16.96816 | 40049 ft | 452 kts | 317° |
| 2026-05-08 15:24 | 48.00214 | 16.90955 | 40049 ft | 452 kts | 317° |
| 2026-05-08 15:25 | 48.05106 | 16.85068 | 40050 ft | 452 kts | 317° |
| 2026-05-08 15:25 | 48.09993 | 16.79164 | 40048 ft | 451 kts | 317° |
| 2026-05-08 15:26 | 48.14871 | 16.73257 | 40048 ft | 451 kts | 317° |
| 2026-05-08 15:26 | 48.19746 | 16.67338 | 40047 ft | 451 kts | 317° |
| 2026-05-08 15:27 | 48.24589 | 16.61446 | 40049 ft | 451 kts | 317° |
| 2026-05-08 15:27 | 48.29460 | 16.55504 | 40052 ft | 451 kts | 317° |
| 2026-05-08 15:28 | 48.34328 | 16.49549 | 40071 ft | 452 kts | 317° |
| 2026-05-08 15:28 | 48.39199 | 16.43575 | 40057 ft | 453 kts | 317° |
| 2026-05-08 15:29 | 48.44079 | 16.37576 | 40069 ft | 453 kts | 317° |
| 2026-05-08 15:29 | 48.48953 | 16.31568 | 40069 ft | 453 kts | 317° |
| 2026-05-08 15:30 | 48.53825 | 16.25549 | 40065 ft | 453 kts | 317° |
| 2026-05-08 15:30 | 48.58691 | 16.19520 | 40080 ft | 453 kts | 317° |
| 2026-05-08 15:31 | 48.63558 | 16.13475 | 40061 ft | 453 kts | 317° |
| 2026-05-08 15:31 | 48.68422 | 16.07417 | 40065 ft | 453 kts | 317° |
| 2026-05-08 15:32 | 48.73281 | 16.01351 | 40065 ft | 453 kts | 317° |
| 2026-05-08 15:32 | 48.78136 | 15.95273 | 40083 ft | 453 kts | 317° |
| 2026-05-08 15:33 | 48.82987 | 15.89186 | 40078 ft | 453 kts | 317° |
| 2026-05-08 15:33 | 48.88118 | 15.83590 | 40083 ft | 459 kts | 329° |
| 2026-05-08 15:34 | 48.93992 | 15.79649 | 40081 ft | 463 kts | 334° |
| 2026-05-08 15:34 | 49.00010 | 15.76112 | 40088 ft | 464 kts | 336° |
| 2026-05-08 15:35 | 49.06050 | 15.72641 | 40086 ft | 464 kts | 335° |
| 2026-05-08 15:35 | 49.12084 | 15.69137 | 40095 ft | 464 kts | 335° |
| 2026-05-08 15:36 | 49.17097 | 15.66195 | 40101 ft | 464 kts | 335° |
| 2026-05-08 15:36 | 49.23122 | 15.62639 | 40094 ft | 465 kts | 335° |
| 2026-05-08 15:37 | 49.29154 | 15.59069 | 40100 ft | 465 kts | 335° |
| 2026-05-08 15:37 | 49.36167 | 15.54908 | 40099 ft | 465 kts | 335° |
| 2026-05-08 15:38 | 49.41221 | 15.51902 | 40105 ft | 465 kts | 335° |
| 2026-05-08 15:38 | 49.47257 | 15.48304 | 40112 ft | 465 kts | 335° |
| 2026-05-08 15:39 | 49.53284 | 15.44700 | 40110 ft | 465 kts | 335° |
| 2026-05-08 15:39 | 49.59319 | 15.41084 | 40116 ft | 465 kts | 335° |
| 2026-05-08 15:40 | 49.65310 | 15.37484 | 40117 ft | 465 kts | 335° |
| 2026-05-08 15:40 | 49.71334 | 15.33856 | 40117 ft | 465 kts | 335° |
| 2026-05-08 15:41 | 49.77360 | 15.30216 | 40121 ft | 465 kts | 335° |
| 2026-05-08 15:41 | 49.83381 | 15.26569 | 40121 ft | 465 kts | 335° |
| 2026-05-08 15:42 | 49.89445 | 15.22887 | 40125 ft | 465 kts | 335° |
| 2026-05-08 15:42 | 49.95426 | 15.19245 | 40121 ft | 464 kts | 335° |
| 2026-05-08 15:43 | 50.01436 | 15.15575 | 40127 ft | 465 kts | 335° |
| 2026-05-08 15:43 | 50.07459 | 15.11887 | 40127 ft | 465 kts | 335° |
| 2026-05-08 15:44 | 50.13481 | 15.08191 | 40124 ft | 465 kts | 335° |
| 2026-05-08 15:44 | 50.19496 | 15.04488 | 40129 ft | 465 kts | 335° |
| 2026-05-08 15:45 | 50.25515 | 15.00774 | 40129 ft | 465 kts | 335° |
| 2026-05-08 15:45 | 50.31530 | 14.97051 | 40129 ft | 465 kts | 335° |
| 2026-05-08 15:46 | 50.37545 | 14.93319 | 40139 ft | 465 kts | 335° |
| 2026-05-08 15:46 | 50.43561 | 14.89575 | 40136 ft | 465 kts | 335° |
| 2026-05-08 15:47 | 50.49682 | 14.86225 | 40139 ft | 468 kts | 342° |
| 2026-05-08 15:47 | 50.56007 | 14.83746 | 40140 ft | 469 kts | 343° |
| 2026-05-08 15:48 | 50.65550 | 14.80285 | 40147 ft | 469 kts | 344° |
| 2026-05-08 15:49 | 50.71908 | 14.77981 | 40129 ft | 469 kts | 344° |
| 2026-05-08 15:49 | 50.75072 | 14.76826 | 39922 ft | 465 kts | 344° |
| 2026-05-08 15:49 | 50.78186 | 14.75687 | 39722 ft | 458 kts | 344° |
| 2026-05-08 15:49 | 50.81286 | 14.74547 | 39179 ft | 460 kts | 344° |
| 2026-05-08 15:50 | 50.84423 | 14.73388 | 38517 ft | 463 kts | 344° |
| 2026-05-08 15:50 | 50.87526 | 14.72063 | 37930 ft | 460 kts | 336° |
| 2026-05-08 15:50 | 50.90384 | 14.69869 | 37390 ft | 454 kts | 324° |
| 2026-05-08 15:50 | 50.92826 | 14.66765 | 36841 ft | 448 kts | 311° |
| 2026-05-08 15:51 | 50.94693 | 14.62875 | 36271 ft | 442 kts | 297° |
| 2026-05-08 15:51 | 50.95924 | 14.58426 | 35693 ft | 440 kts | 288° |
| 2026-05-08 15:51 | 50.96887 | 14.53823 | 35085 ft | 440 kts | 285° |
| 2026-05-08 15:51 | 50.97734 | 14.49159 | 34451 ft | 441 kts | 284° |
| 2026-05-08 15:52 | 50.98532 | 14.44450 | 33742 ft | 442 kts | 283° |
| 2026-05-08 15:52 | 50.99317 | 14.39738 | 33061 ft | 442 kts | 283° |
| 2026-05-08 15:52 | 51.00109 | 14.35029 | 32397 ft | 441 kts | 284° |
| 2026-05-08 15:52 | 51.00910 | 14.30330 | 31729 ft | 441 kts | 284° |
| 2026-05-08 15:53 | 51.01720 | 14.25649 | 31236 ft | 437 kts | 284° |
| 2026-05-08 15:53 | 51.02524 | 14.21038 | 30801 ft | 432 kts | 284° |
| 2026-05-08 15:53 | 51.03324 | 14.16465 | 30325 ft | 428 kts | 284° |
| 2026-05-08 15:53 | 51.04117 | 14.11933 | 29817 ft | 424 kts | 284° |
| 2026-05-08 15:54 | 51.04901 | 14.07445 | 29360 ft | 419 kts | 284° |
| 2026-05-08 15:54 | 51.05671 | 14.03018 | 28897 ft | 414 kts | 284° |
| 2026-05-08 15:54 | 51.06432 | 13.98635 | 28432 ft | 409 kts | 284° |
| 2026-05-08 15:54 | 51.07181 | 13.94305 | 27964 ft | 405 kts | 284° |
| 2026-05-08 15:55 | 51.07923 | 13.90004 | 27518 ft | 401 kts | 284° |
| 2026-05-08 15:55 | 51.09377 | 13.81534 | 26635 ft | 393 kts | 284° |
| 2026-05-08 15:55 | 51.10093 | 13.77350 | 26182 ft | 390 kts | 284° |
| 2026-05-08 15:56 | 51.10802 | 13.73198 | 25739 ft | 388 kts | 284° |
| 2026-05-08 15:56 | 51.11503 | 13.69080 | 25293 ft | 385 kts | 284° |
| 2026-05-08 15:56 | 51.12200 | 13.64983 | 24863 ft | 382 kts | 284° |
| 2026-05-08 15:56 | 51.12890 | 13.60912 | 24417 ft | 380 kts | 284° |
| 2026-05-08 15:57 | 51.13575 | 13.56859 | 23984 ft | 378 kts | 284° |
| 2026-05-08 15:57 | 51.14255 | 13.52829 | 23505 ft | 376 kts | 284° |
| 2026-05-08 15:57 | 51.14930 | 13.48825 | 23060 ft | 372 kts | 284° |
| 2026-05-08 15:57 | 51.15595 | 13.44865 | 22630 ft | 368 kts | 284° |
| 2026-05-08 15:58 | 51.16253 | 13.40935 | 22215 ft | 365 kts | 284° |
| 2026-05-08 15:58 | 51.16901 | 13.37046 | 21797 ft | 362 kts | 283° |
| 2026-05-08 15:58 | 51.17283 | 13.33117 | 21419 ft | 357 kts | 274° |
| 2026-05-08 15:58 | 51.17377 | 13.29187 | 21052 ft | 353 kts | 271° |
| 2026-05-08 15:59 | 51.17399 | 13.25351 | 20671 ft | 350 kts | 270° |
| 2026-05-08 15:59 | 51.17399 | 13.21482 | 20286 ft | 347 kts | 270° |
| 2026-05-08 15:59 | 51.17390 | 13.17651 | 19903 ft | 345 kts | 270° |
| 2026-05-08 15:59 | 51.17377 | 13.13784 | 19512 ft | 344 kts | 270° |
| 2026-05-08 16:00 | 51.17362 | 13.10037 | 19137 ft | 342 kts | 270° |
| 2026-05-08 16:00 | 51.17345 | 13.06247 | 18759 ft | 341 kts | 270° |
| 2026-05-08 16:00 | 51.17326 | 13.02478 | 18363 ft | 340 kts | 270° |
| 2026-05-08 16:00 | 51.17305 | 12.98728 | 17953 ft | 337 kts | 270° |
| 2026-05-08 16:01 | 51.17284 | 12.94963 | 17569 ft | 334 kts | 270° |
| 2026-05-08 16:01 | 51.17262 | 12.91314 | 17197 ft | 333 kts | 270° |
| 2026-05-08 16:01 | 51.17238 | 12.87633 | 16814 ft | 331 kts | 270° |
| 2026-05-08 16:01 | 51.17284 | 12.83982 | 16439 ft | 329 kts | 276° |
| 2026-05-08 16:02 | 51.17778 | 12.80451 | 16084 ft | 327 kts | 288° |
| 2026-05-08 16:02 | 51.18597 | 12.77078 | 15711 ft | 325 kts | 292° |
| 2026-05-08 16:02 | 51.19474 | 12.73768 | 15323 ft | 324 kts | 292° |
| 2026-05-08 16:02 | 51.20355 | 12.70466 | 14953 ft | 322 kts | 292° |
| 2026-05-08 16:03 | 51.21224 | 12.67185 | 14589 ft | 320 kts | 292° |
| 2026-05-08 16:03 | 51.22085 | 12.63915 | 14212 ft | 318 kts | 292° |
| 2026-05-08 16:03 | 51.22936 | 12.60671 | 13832 ft | 316 kts | 292° |
| 2026-05-08 16:03 | 51.23781 | 12.57441 | 13440 ft | 315 kts | 292° |
| 2026-05-08 16:04 | 51.24621 | 12.54221 | 13076 ft | 314 kts | 292° |
| 2026-05-08 16:04 | 51.25383 | 12.50962 | 12708 ft | 313 kts | 285° |
| 2026-05-08 16:04 | 51.25677 | 12.47535 | 12332 ft | 312 kts | 271° |
| 2026-05-08 16:04 | 51.25593 | 12.44082 | 11943 ft | 311 kts | 266° |
| 2026-05-08 16:05 | 51.25431 | 12.40647 | 11582 ft | 310 kts | 266° |
| 2026-05-08 16:05 | 51.25261 | 12.37221 | 11226 ft | 309 kts | 266° |
| 2026-05-08 16:05 | 51.25095 | 12.33802 | 10875 ft | 309 kts | 266° |
| 2026-05-08 16:05 | 51.24932 | 12.30401 | 10638 ft | 303 kts | 266° |
| 2026-05-08 16:06 | 51.24833 | 12.27125 | 10549 ft | 290 kts | 272° |
| 2026-05-08 16:06 | 51.25108 | 12.24002 | 10445 ft | 278 kts | 282° |
| 2026-05-08 16:06 | 51.25558 | 12.21045 | 10350 ft | 270 kts | 284° |
| 2026-05-08 16:06 | 51.26025 | 12.18173 | 9991 ft | 269 kts | 284° |
| 2026-05-08 16:07 | 51.26508 | 12.15215 | 9299 ft | 279 kts | 284° |
| 2026-05-08 16:07 | 51.26995 | 12.12210 | 8554 ft | 281 kts | 284° |
| 2026-05-08 16:07 | 51.27482 | 12.09189 | 7861 ft | 279 kts | 284° |
| 2026-05-08 16:07 | 51.27961 | 12.06194 | 7181 ft | 278 kts | 284° |
| 2026-05-08 16:08 | 51.28410 | 12.03190 | 6512 ft | 278 kts | 279° |
| 2026-05-08 16:08 | 51.28546 | 12.00127 | 5841 ft | 275 kts | 273° |
| 2026-05-08 16:08 | 51.28818 | 11.97110 | 5207 ft | 274 kts | 287° |
| 2026-05-08 16:08 | 51.29608 | 11.94376 | 4586 ft | 272 kts | 305° |
| 2026-05-08 16:09 | 51.30903 | 11.92216 | 3949 ft | 268 kts | 324° |
| 2026-05-08 16:09 | 51.31960 | 11.91215 | 3529 ft | 265 kts | 338° |
| 2026-05-08 16:09 | 51.34293 | 11.90271 | 3037 ft | 255 kts | 353° |
| 2026-05-08 16:09 | 51.35970 | 11.89931 | 3009 ft | 229 kts | 356° |
| 2026-05-08 16:10 | 51.37453 | 11.90035 | 3022 ft | 199 kts | 15° |
| 2026-05-08 16:10 | 51.38644 | 11.90896 | 3016 ft | 183 kts | 38° |
| 2026-05-08 16:10 | 51.39387 | 11.92505 | 3007 ft | 182 kts | 66° |
| 2026-05-08 16:10 | 51.39816 | 11.94408 | 2996 ft | 182 kts | 76° |
| 2026-05-08 16:11 | 51.40009 | 11.96376 | 2988 ft | 181 kts | 84° |
| 2026-05-08 16:11 | 51.40111 | 11.98386 | 2994 ft | 179 kts | 85° |
| 2026-05-08 16:11 | 51.40199 | 12.00288 | 2977 ft | 165 kts | 85° |
| 2026-05-08 16:11 | 51.40293 | 12.02114 | 2795 ft | 160 kts | 85° |
| 2026-05-08 16:12 | 51.40382 | 12.03881 | 2560 ft | 158 kts | 85° |
| 2026-05-08 16:12 | 51.40462 | 12.05599 | 2352 ft | 148 kts | 85° |
| 2026-05-08 16:12 | 51.40535 | 12.07175 | 2148 ft | 141 kts | 84° |
| 2026-05-08 16:12 | 51.40608 | 12.08728 | 1944 ft | 135 kts | 84° |
| 2026-05-08 16:13 | 51.40677 | 12.10197 | 1770 ft | 133 kts | 85° |
| 2026-05-08 16:13 | 51.40747 | 12.11693 | 1579 ft | 133 kts | 85° |
| 2026-05-08 16:13 | 51.40815 | 12.13149 | 1400 ft | 132 kts | 84° |
| 2026-05-08 16:13 | 51.40884 | 12.14613 | 1204 ft | 132 kts | 85° |
| 2026-05-08 16:14 | 51.40953 | 12.16087 | 1022 ft | 132 kts | 84° |
| 2026-05-08 16:14 | 51.41023 | 12.17576 | 843 ft | 132 kts | 84° |
| 2026-05-08 16:14 | 51.41093 | 12.19014 | 639 ft | 131 kts | 84° |
| 2026-05-08 16:14 | 51.41158 | 12.20468 | 475 ft | 131 kts | 84° |
| 2026-05-08 16:15 | 51.41223 | 12.21775 | 469 ft | 87 kts | 86° |
| 2026-05-08 16:15 | 51.41259 | 12.22539 | 469 ft | 62 kts | 85° |
| 2026-05-08 16:15 | 51.41283 | 12.23065 | 473 ft | 19 kts | 86° |
| 2026-05-08 16:15 | 51.41260 | 12.23243 | 472 ft | 15 kts | 141° |
| 2026-05-08 16:16 | 51.41181 | 12.23275 | 477 ft | 0 kts | 176° |
| 2026-05-08 16:16 | 51.41179 | 12.23276 | 478 ft | 0 kts | 176° |
| 2026-05-08 16:16 | 51.41175 | 12.23276 | 478 ft | 1 kts | 176° |
| 2026-05-08 16:16 | 51.41143 | 12.23302 | 478 ft | 6 kts | 136° |
| 2026-05-08 16:17 | 51.41130 | 12.23355 | 476 ft | 5 kts | 96° |
| 2026-05-08 16:17 | 51.41128 | 12.23403 | 482 ft | 9 kts | 94° |
| 2026-05-08 16:17 | 51.41138 | 12.23604 | 480 ft | 19 kts | 86° |
| 2026-05-08 16:17 | 51.41147 | 12.23824 | 474 ft | 20 kts | 86° |
| 2026-05-08 16:18 | 51.41158 | 12.24049 | 477 ft | 21 kts | 85° |
| 2026-05-08 16:18 | 51.41170 | 12.24297 | 473 ft | 22 kts | 85° |
| 2026-05-08 16:18 | 51.41173 | 12.24530 | 472 ft | 18 kts | 112° |
| 2026-05-08 16:18 | 51.41066 | 12.24629 | 471 ft | 18 kts | 156° |
| 2026-05-08 16:19 | 51.40941 | 12.24663 | 470 ft | 19 kts | 176° |
| 2026-05-08 16:19 | 51.40803 | 12.24680 | 468 ft | 14 kts | 173° |
| 2026-05-08 16:19 | 51.40777 | 12.24781 | 467 ft | 10 kts | 86° |
| 2026-05-08 16:19 | 51.40780 | 12.24824 | 468 ft | 0 kts | 85° |
| 2026-05-08 16:20 | 51.40781 | 12.24847 | 468 ft | 0 kts | 85° |